createdAt,value
2023-01-19T00:18:04.268Z,38.20
2023-01-19T00:39:50.028Z,36.20
2023-01-19T01:01:45.249Z,31.40
2023-01-19T01:23:31.931Z,25.10
2023-01-19T01:51:28.069Z,11.40
2023-01-19T02:13:21.316Z,7.30
2023-01-19T02:35:08.373Z,6.80
2023-01-19T02:57:19.227Z,5.50
2023-01-19T03:19:11.095Z,5.40
2023-01-19T03:41:01.016Z,6.60
2023-01-19T04:02:46.808Z,7.10
2023-01-19T04:24:32.643Z,10.30
2023-01-19T04:51:15.897Z,13.10
2023-01-19T05:13:01.944Z,14.00
2023-01-19T05:34:47.838Z,12.40
2023-01-19T06:18:18.466Z,8.40
2023-01-19T06:51:06.642Z,9.20
2023-01-19T07:12:53.355Z,10.20
2023-01-19T07:34:39.260Z,9.70
2023-01-19T07:56:27.800Z,10.60
2023-01-19T08:18:15.825Z,11.90
2023-01-19T08:40:01.588Z,12.30
2023-01-19T09:01:47.588Z,13.00
2023-01-19T09:23:33.460Z,13.70
2023-01-19T09:45:28.250Z,9.90
2023-01-19T10:07:22.619Z,8.80
2023-01-19T10:29:20.161Z,8.20
2023-01-19T10:51:07.958Z,7.50
2023-01-19T11:13:07.565Z,6.90
2023-01-19T11:51:19.993Z,6.60
2023-01-19T12:13:06.292Z,6.50
2023-01-19T13:05:52.342Z,7.30
2023-01-19T13:27:36.613Z,7.50
2023-01-19T13:49:22.666Z,8.50
2023-01-19T14:11:06.898Z,6.70
2023-01-19T14:32:49.801Z,6.70
2023-01-19T14:54:40.072Z,7.20
2023-01-19T15:16:23.671Z,7.60
2023-01-19T15:38:06.628Z,10.40
2023-01-19T15:59:50.795Z,16.40
2023-01-19T16:21:33.709Z,13.90
2023-01-19T16:43:18.029Z,16.30
2023-01-19T17:05:00.916Z,17.50
2023-01-19T17:26:45.300Z,16.90
2023-01-19T17:48:28.191Z,19.40
2023-01-19T18:10:12.494Z,17.00
2023-01-19T18:31:55.851Z,16.40
2023-01-19T18:53:39.430Z,18.70
2023-01-19T19:15:22.556Z,18.60
2023-01-19T19:37:05.494Z,34.70
2023-01-19T19:58:49.037Z,28.70
2023-01-19T20:20:32.293Z,34.60
2023-01-19T20:42:15.991Z,33.30
2023-01-19T21:03:58.953Z,32.80
2023-01-19T21:25:50.434Z,33.90
2023-01-19T21:47:34.850Z,36.90
2023-01-19T22:09:17.699Z,35.60
2023-01-19T22:31:05.881Z,39.60
2023-01-19T22:52:48.873Z,45.20
2023-01-19T23:14:31.738Z,44.70
2023-01-19T23:36:15.649Z,39.70
2023-01-19T23:57:58.589Z,40.70
